Time;durP1;ratioP1;P1;durP2;ratioP2;P2;SDS_P1;SDS_P2;PMS_P1;PMS_P2;Temp;Humidity;BMP_temperature;BMP_pressure;BME280_temperature;BME280_humidity;BME280_pressure;Samples;Min_cycle;Max_cycle;Signal;HPM_P1;HPM_P2
2022/03/28 00:00:02;;;;;;;0.00;0.00;;;;;;;12.03;47.57;102161.75;7356774;19;20424;-63
2022/03/28 00:02:28;;;;;;;0.00;0.00;;;;;;;12.01;47.53;102160.88;7357570;19;20013;-62
2022/03/28 00:04:53;;;;;;;0.00;0.00;;;;;;;11.98;48.12;102160.91;7358598;19;20457;-63
2022/03/28 00:07:18;;;;;;;0.00;0.00;;;;;;;11.95;47.73;102156.53;7348553;19;20472;-63
2022/03/28 00:09:44;;;;;;;0.00;0.00;;;;;;;11.92;48.24;102153.09;7351571;19;20027;-63
2022/03/28 00:12:10;;;;;;;0.00;0.00;;;;;;;11.89;48.74;102145.25;7361234;19;20417;-63
2022/03/28 00:14:36;;;;;;;0.00;0.00;;;;;;;11.86;49.05;102145.25;7344449;19;20353;-63
2022/03/28 00:17:01;;;;;;;0.00;0.00;;;;;;;11.82;48.12;102144.41;7358037;19;20517;-63
2022/03/28 00:19:26;;;;;;;0.00;0.00;;;;;;;11.79;48.40;102146.13;7355252;19;20033;-63
2022/03/28 00:21:52;;;;;;;0.00;0.00;;;;;;;11.75;49.03;102136.56;7347248;19;20038;-63
2022/03/28 00:24:17;;;;;;;0.00;0.00;;;;;;;11.66;48.60;102132.25;7359307;19;20010;-63
2022/03/28 00:26:43;;;;;;;0.00;0.00;;;;;;;11.61;49.79;102131.41;7334522;19;20010;-63
2022/03/28 00:29:08;;;;;;;0.00;0.00;;;;;;;11.54;48.99;102132.28;7354973;19;20089;-63
2022/03/28 00:31:33;;;;;;;0.00;0.00;;;;;;;11.39;48.70;102122.75;7357427;19;20375;-63
2022/03/28 00:33:59;;;;;;;0.00;0.00;;;;;;;11.40;48.45;102134.94;7353726;19;20010;-63
2022/03/28 00:36:24;;;;;;;0.00;0.00;;;;;;;11.35;48.01;102127.13;7348369;19;20370;-64
2022/03/28 00:38:51;;;;;;;0.00;0.00;;;;;;;11.30;48.92;102126.25;7355096;19;20011;-63
2022/03/28 00:41:17;;;;;;;0.00;0.00;;;;;;;11.27;48.42;102125.41;7344665;19;20050;-62
2022/03/28 00:43:53;;;;;;;0.00;0.00;;;;;;;11.22;48.97;102122.81;7359125;19;21023;-63
2022/03/28 00:46:19;;;;;;;0.00;0.00;;;;;;;11.17;48.24;102114.97;7350381;19;20014;-62
2022/03/28 00:48:44;;;;;;;0.00;0.00;;;;;;;11.06;47.90;102103.66;7352257;19;20018;-63
2022/03/28 00:51:11;;;;;;;0.00;0.00;;;;;;;11.08;48.23;102112.38;7358086;19;20010;-63
2022/03/28 00:53:38;;;;;;;0.00;0.00;;;;;;;10.93;48.12;102101.94;7357875;19;20079;-63
2022/03/28 00:56:05;;;;;;;0.00;0.00;;;;;;;10.95;48.87;102105.44;7354102;19;20011;-62
2022/03/28 00:58:31;;;;;;;0.00;0.00;;;;;;;10.93;48.85;102112.41;7356477;19;20052;-63
2022/03/28 01:00:57;;;;;;;0.00;0.00;;;;;;;10.87;49.41;102113.28;7361402;19;20011;-63
2022/03/28 01:03:22;;;;;;;0.00;0.00;;;;;;;10.81;48.37;102107.19;7357693;19;20014;-63
2022/03/28 01:05:47;;;;;;;0.00;0.00;;;;;;;10.76;48.63;102103.72;7356401;19;20019;-63
2022/03/28 01:08:14;;;;;;;0.00;0.00;;;;;;;10.62;48.85;102086.31;7353502;19;20031;-63
2022/03/28 01:10:42;;;;;;;0.00;0.00;;;;;;;10.72;48.69;102104.59;7351819;19;20010;-62
2022/03/28 01:13:09;;;;;;;0.00;0.00;;;;;;;10.69;48.84;102097.59;7356196;19;20019;-63
2022/03/28 01:15:37;;;;;;;0.00;0.00;;;;;;;10.67;48.84;102099.38;7358831;19;20014;-63
2022/03/28 01:18:05;;;;;;;0.00;0.00;;;;;;;10.63;48.70;102095.88;7358092;19;20674;-63
2022/03/28 01:20:33;;;;;;;0.00;0.00;;;;;;;10.62;48.83;102096.75;7365532;19;20047;-63
2022/03/28 01:22:59;;;;;;;0.00;0.00;;;;;;;10.58;49.65;102089.78;7365128;19;20013;-63
2022/03/28 01:25:27;;;;;;;0.00;0.00;;;;;;;10.58;49.35;102096.75;7364805;19;20018;-62
2022/03/28 01:27:54;;;;;;;0.00;0.00;;;;;;;10.54;48.80;102090.69;7355781;19;20018;-63
2022/03/28 01:30:20;;;;;;;0.00;0.00;;;;;;;10.52;49.49;102094.16;7359573;19;20106;-63
2022/03/28 01:32:47;;;;;;;0.00;0.00;;;;;;;10.48;49.47;102081.94;7365030;19;20017;-62
2022/03/28 01:35:12;;;;;;;0.00;0.00;;;;;;;10.48;49.24;102085.44;7354885;19;20033;-63
2022/03/28 01:37:38;;;;;;;0.00;0.00;;;;;;;10.46;49.29;102083.72;7365680;19;20007;-63
2022/03/28 01:40:04;;;;;;;0.00;0.00;;;;;;;10.44;49.46;102080.22;7361819;19;20010;-63
2022/03/28 01:42:30;;;;;;;0.00;0.00;;;;;;;10.32;50.16;102065.41;7363143;19;20025;-63
2022/03/28 01:44:57;;;;;;;0.00;0.00;;;;;;;10.39;49.65;102080.19;7361585;19;20486;-62
2022/03/28 01:47:25;;;;;;;0.00;0.00;;;;;;;10.36;50.13;102078.47;7353710;19;20016;-62
2022/03/28 01:49:51;;;;;;;0.00;0.00;;;;;;;10.29;50.22;102063.69;7360088;19;20015;-63
2022/03/28 01:52:18;;;;;;;0.00;0.00;;;;;;;10.28;50.15;102069.75;7353867;19;20075;-63
2022/03/28 01:54:44;;;;;;;0.00;0.00;;;;;;;10.25;50.74;102063.69;7357816;19;20018;-62
2022/03/28 01:57:10;;;;;;;0.00;0.00;;;;;;;10.21;50.73;102062.78;7365950;19;20022;-63
2022/03/28 01:59:35;;;;;;;0.00;0.00;;;;;;;10.18;50.67;102072.34;7349579;19;20007;-62
2022/03/28 02:02:00;;;;;;;0.00;0.00;;;;;;;10.11;50.09;102056.66;7354691;19;20014;-63
2022/03/28 02:04:26;;;;;;;0.00;0.00;;;;;;;10.10;50.18;102056.69;7354661;19;20400;-62
2022/03/28 02:06:51;;;;;;;0.00;0.00;;;;;;;10.06;50.86;102053.19;7355072;19;20010;-63
2022/03/28 02:09:17;;;;;;;0.00;0.00;;;;;;;10.03;50.90;102050.56;7340083;19;20135;-62
2022/03/28 02:11:42;;;;;;;0.00;0.00;;;;;;;10.00;49.96;102042.75;7355199;19;20014;-62
2022/03/28 02:14:07;;;;;;;0.00;0.00;;;;;;;9.98;50.72;102051.44;7358051;19;20045;-62
2022/03/28 02:16:33;;;;;;;0.00;0.00;;;;;;;9.95;50.17;102043.63;7345617;19;20014;-63
2022/03/28 02:18:58;;;;;;;0.00;0.00;;;;;;;9.90;50.14;102038.38;7360870;19;20039;-62
2022/03/28 02:21:24;;;;;;;0.00;0.00;;;;;;;9.88;49.93;102042.72;7356333;19;20014;-62
2022/03/28 02:23:49;;;;;;;0.00;0.00;;;;;;;9.77;50.05;102026.19;7348198;19;20018;-63
2022/03/28 02:26:14;;;;;;;0.00;0.00;;;;;;;9.81;49.89;102035.75;7361568;19;20010;-63
2022/03/28 02:28:40;;;;;;;0.00;0.00;;;;;;;9.78;50.14;102020.09;7343454;19;20021;-63
2022/03/28 02:31:05;;;;;;;0.00;0.00;;;;;;;9.76;50.75;102021.84;7359861;19;20014;-62
2022/03/28 02:33:31;;;;;;;0.00;0.00;;;;;;;9.71;50.14;102018.34;7348536;19;20065;-63
2022/03/28 02:35:56;;;;;;;0.00;0.00;;;;;;;9.71;50.92;102013.13;7352073;19;20026;-63
2022/03/28 02:38:21;;;;;;;0.00;0.00;;;;;;;9.61;50.67;102012.25;7361817;19;20366;-63
2022/03/28 02:40:47;;;;;;;0.00;0.00;;;;;;;9.48;50.98;102011.34;7340775;19;20014;-62
2022/03/28 02:43:12;;;;;;;0.00;0.00;;;;;;;9.37;50.96;102013.03;7362921;19;20014;-63
2022/03/28 02:45:38;;;;;;;0.00;0.00;;;;;;;9.22;52.50;102002.53;7353585;19;20003;-63
2022/03/28 02:48:04;;;;;;;0.00;0.00;;;;;;;9.23;52.12;101999.09;7342309;19;20015;-63
2022/03/28 02:50:31;;;;;;;0.10;0.10;;;;;;;9.20;52.94;102009.50;7357415;19;20359;-63
2022/03/28 02:52:57;;;;;;;0.00;0.00;;;;;;;9.16;53.12;102002.53;7355398;19;20031;-63
2022/03/28 02:55:23;;;;;;;0.00;0.00;;;;;;;9.12;52.83;102000.78;7346845;19;20010;-62
2022/03/28 02:57:49;;;;;;;0.00;0.00;;;;;;;9.01;53.55;101983.34;7359873;19;20018;-62
2022/03/28 03:00:14;;;;;;;0.00;0.00;;;;;;;9.10;52.52;101998.16;7352503;19;20037;-62
2022/03/28 03:02:44;;;;;;;0.00;0.00;;;;;;;9.03;52.76;101980.78;7352670;19;20097;-63
2022/03/28 03:05:11;;;;;;;0.00;0.00;;;;;;;9.10;54.22;101991.22;7353679;19;20017;-62
2022/03/28 03:07:37;;;;;;;0.00;0.00;;;;;;;9.09;53.44;101997.31;7352845;19;20025;-61
2022/03/28 03:10:03;;;;;;;0.00;0.00;;;;;;;9.09;53.21;101984.28;7349626;19;20018;-62
2022/03/28 03:12:29;;;;;;;0.00;0.00;;;;;;;9.06;53.51;101984.25;7353660;19;20014;-63
2022/03/28 03:14:54;;;;;;;0.00;0.00;;;;;;;9.01;52.94;101991.19;7355913;19;20026;-63
2022/03/28 03:17:20;;;;;;;0.00;0.00;;;;;;;8.96;53.76;101979.88;7359828;19;20027;-62
2022/03/28 03:19:46;;;;;;;0.00;0.00;;;;;;;8.79;53.13;101958.09;7355749;19;20013;-63
2022/03/28 03:22:14;;;;;;;0.00;0.00;;;;;;;8.90;53.19;101969.41;7348935;19;20015;-62
2022/03/28 03:24:40;;;;;;;0.00;0.00;;;;;;;8.88;53.25;101971.16;7359097;19;20019;-63
2022/03/28 03:27:05;;;;;;;0.00;0.00;;;;;;;8.87;53.35;101968.53;7360137;19;20017;-62
2022/03/28 03:29:31;;;;;;;0.00;0.00;;;;;;;8.83;53.14;101965.06;7363357;19;20034;-62
2022/03/28 03:31:56;;;;;;;0.00;0.00;;;;;;;8.83;52.51;101962.47;7362640;19;20010;-63
2022/03/28 03:34:22;;;;;;;0.00;0.00;;;;;;;8.83;52.46;101967.66;7361541;19;20010;-61
2022/03/28 03:36:47;;;;;;;0.00;0.00;;;;;;;8.81;52.98;101953.75;7362459;19;20513;-63
2022/03/28 03:39:13;;;;;;;0.00;0.00;;;;;;;8.79;54.93;101950.28;7358307;19;20018;-63
2022/03/28 03:41:38;;;;;;;0.10;0.10;;;;;;;8.77;55.30;101946.81;7348607;19;20332;-63
2022/03/28 03:44:05;;;;;;;0.00;0.00;;;;;;;8.69;54.70;101927.66;7362942;19;20006;-63
2022/03/28 03:46:31;;;;;;;0.03;0.03;;;;;;;8.74;54.40;101939.84;7339822;19;20007;-63
2022/03/28 03:48:57;;;;;;;0.00;0.00;;;;;;;8.76;54.60;101934.63;7360883;19;20944;-63
2022/03/28 03:51:22;;;;;;;0.00;0.00;;;;;;;8.76;54.50;101934.63;7361534;19;20086;-63
2022/03/28 03:53:48;;;;;;;0.10;0.10;;;;;;;8.77;54.61;101932.03;7360190;19;20048;-63
2022/03/28 03:56:13;;;;;;;0.00;0.00;;;;;;;8.61;53.97;101913.72;7360841;19;20082;-63
2022/03/28 03:58:39;;;;;;;0.00;0.00;;;;;;;8.74;54.53;101936.34;7360984;19;20102;-63
2022/03/28 04:01:04;;;;;;;0.00;0.00;;;;;;;8.65;54.37;101925.91;7362575;19;20688;-63
2022/03/28 04:03:31;;;;;;;0.00;0.00;;;;;;;8.62;54.45;101920.66;7361276;19;20021;-62
2022/03/28 04:05:56;;;;;;;0.00;0.00;;;;;;;8.61;54.50;101919.78;7359223;19;20015;-62
2022/03/28 04:08:22;;;;;;;0.00;0.00;;;;;;;8.61;54.85;101919.78;7348043;19;20015;-63
2022/03/28 04:10:47;;;;;;;0.00;0.00;;;;;;;8.45;54.29;101903.22;7357810;19;20006;-62
2022/03/28 04:13:14;;;;;;;0.00;0.00;;;;;;;8.39;55.51;101891.91;7360876;19;20016;-63
2022/03/28 04:15:39;;;;;;;0.10;0.10;;;;;;;8.54;55.04;101918.91;7353968;19;20018;-63
2022/03/28 04:18:05;;;;;;;0.10;0.10;;;;;;;8.53;54.74;101919.78;7347205;19;20009;-63
2022/03/28 04:20:32;;;;;;;0.00;0.00;;;;;;;8.52;55.61;101915.44;7359903;19;20032;-62
2022/03/28 04:22:58;;;;;;;0.00;0.00;;;;;;;8.52;55.45;101925.84;7360959;19;20023;-63
2022/03/28 04:25:24;;;;;;;0.00;0.00;;;;;;;8.51;55.69;101918.88;7351300;19;20017;-63
2022/03/28 04:27:49;;;;;;;0.00;0.00;;;;;;;8.50;55.41;101917.13;7352837;19;20015;-62
2022/03/28 04:30:15;;;;;;;0.00;0.00;;;;;;;8.45;55.44;101908.44;7362282;19;20346;-63
2022/03/28 04:32:40;;;;;;;0.05;0.05;;;;;;;8.43;55.26;101909.31;7357521;19;20015;-63
2022/03/28 04:35:07;;;;;;;0.00;0.00;;;;;;;8.38;55.32;101909.28;7361527;19;20015;-63
2022/03/28 04:37:40;;;;;;;0.00;0.00;;;;;;;8.28;55.39;101894.44;7359950;19;20006;-63
2022/03/28 04:40:09;;;;;;;0.00;0.00;;;;;;;8.17;55.41;101890.91;7361738;19;20014;-63
2022/03/28 04:42:34;;;;;;;0.10;0.10;;;;;;;8.28;55.30;101910.06;7352151;19;20014;-63
2022/03/28 04:45:00;;;;;;;0.00;0.00;;;;;;;8.18;55.52;101887.44;7362157;19;20015;-63
2022/03/28 04:47:25;;;;;;;0.00;0.00;;;;;;;8.24;55.52;101901.34;7353056;19;20014;-63
2022/03/28 04:49:51;;;;;;;0.00;0.00;;;;;;;8.23;55.71;101891.81;7360385;19;20326;-63
2022/03/28 04:52:16;;;;;;;0.00;0.00;;;;;;;8.15;56.82;101879.59;7374860;19;20038;-63
2022/03/28 04:54:41;;;;;;;0.00;0.00;;;;;;;8.21;56.75;101896.13;7368756;19;20718;-62
2022/03/28 04:57:07;;;;;;;0.00;0.00;;;;;;;8.18;57.02;101887.44;7374550;19;20020;-63
2022/03/28 04:59:33;;;;;;;0.00;0.00;;;;;;;8.20;57.41;101889.16;7374883;19;20006;-63
2022/03/28 05:01:59;;;;;;;0.00;0.00;;;;;;;8.13;56.95;101876.13;7356957;19;20134;-63
2022/03/28 05:04:25;;;;;;;0.00;0.00;;;;;;;8.14;57.36;101880.47;7376560;19;20062;-63
2022/03/28 05:06:50;;;;;;;0.00;0.00;;;;;;;8.17;56.68;101875.28;7368687;19;20502;-63
2022/03/28 05:09:16;;;;;;;0.00;0.00;;;;;;;8.18;56.84;101879.63;7371334;19;20077;-63
2022/03/28 05:11:42;;;;;;;0.00;0.00;;;;;;;8.15;56.58;101877.00;7374003;19;20120;-63
2022/03/28 05:14:08;;;;;;;0.00;0.00;;;;;;;8.10;56.09;101878.69;7366966;19;20014;-61
2022/03/28 05:16:34;;;;;;;0.00;0.00;;;;;;;8.09;56.10;101876.97;7373448;19;20096;-62
2022/03/28 05:18:59;;;;;;;0.10;0.10;;;;;;;8.04;55.65;101879.53;7362463;19;20022;-63
2022/03/28 05:21:24;;;;;;;0.00;0.00;;;;;;;7.99;55.65;101876.03;7365994;19;20033;-63
2022/03/28 05:23:50;;;;;;;0.10;0.10;;;;;;;7.83;55.48;101859.44;7374514;19;20090;-63
2022/03/28 05:26:15;;;;;;;0.00;0.00;;;;;;;7.87;56.21;101870.75;7366707;19;20006;-62
2022/03/28 05:28:41;;;;;;;0.10;0.10;;;;;;;7.83;56.27;101868.97;7373599;19;20018;-63
2022/03/28 05:31:06;;;;;;;0.00;0.00;;;;;;;7.80;56.93;101875.88;7361322;19;20010;-62
2022/03/28 05:33:32;;;;;;;0.00;0.00;;;;;;;7.79;56.39;101866.34;7368377;19;20022;-63
2022/03/28 05:35:58;;;;;;;0.00;0.00;;;;;;;7.75;57.32;101861.13;7365139;19;20019;-63
2022/03/28 05:38:23;;;;;;;0.10;0.10;;;;;;;7.78;57.18;101867.22;7371363;19;20018;-62
2022/03/28 05:40:49;;;;;;;0.00;0.00;;;;;;;7.78;56.33;101866.34;7370831;19;20017;-63
2022/03/28 05:43:16;;;;;;;0.00;0.00;;;;;;;7.72;56.48;101855.91;7361367;19;20014;-63
2022/03/28 05:45:41;;;;;;;0.00;0.00;;;;;;;7.72;56.62;101855.91;7371134;19;20101;-63
2022/03/28 05:48:07;;;;;;;0.00;0.00;;;;;;;7.73;55.79;101862.84;7365880;19;20093;-63
2022/03/28 05:50:32;;;;;;;0.08;0.08;;;;;;;7.70;56.64;101857.59;7374524;19;20119;-61
2022/03/28 05:52:57;;;;;;;0.00;0.00;;;;;;;7.66;57.04;101855.88;7356746;19;20018;-62
2022/03/28 05:55:23;;;;;;;0.00;0.00;;;;;;;7.66;56.66;101861.06;7358471;19;20010;-62
2022/03/28 05:57:48;;;;;;;0.05;0.05;;;;;;;7.65;55.98;101859.31;7372538;19;20548;-63
2022/03/28 06:00:14;;;;;;;0.00;0.00;;;;;;;7.64;55.61;101862.75;7366898;19;20010;-63
2022/03/28 06:02:43;;;;;;;0.00;0.00;;;;;;;7.60;55.03;101863.59;7352036;19;20102;-63
2022/03/28 06:05:13;;;;;;;0.00;0.00;;;;;;;7.54;55.47;101864.41;7352583;19;20014;-62
2022/03/28 06:07:39;;;;;;;0.00;0.00;;;;;;;7.39;55.64;101836.56;7361977;19;22264;-64
2022/03/28 06:10:05;;;;;;;0.00;0.00;;;;;;;7.43;55.90;101859.13;7358190;19;20007;-63
2022/03/28 06:12:30;;;;;;;0.00;0.00;;;;;;;7.37;55.58;101866.88;7363467;19;20036;-63
2022/03/28 06:14:56;;;;;;;0.00;0.00;;;;;;;7.32;55.91;101865.97;7366210;19;20476;-63
2022/03/28 06:17:24;;;;;;;0.00;0.00;;;;;;;7.30;56.02;101857.28;7359669;19;20019;-63
2022/03/28 06:19:49;;;;;;;0.00;0.00;;;;;;;7.28;55.76;101853.78;7363192;19;20015;-63
2022/03/28 06:22:15;;;;;;;0.00;0.00;;;;;;;7.30;55.88;101859.91;7351688;19;20003;-63
2022/03/28 06:24:41;;;;;;;0.10;0.10;;;;;;;7.31;56.02;101858.16;7359512;19;20014;-63
2022/03/28 06:27:07;;;;;;;0.00;0.00;;;;;;;7.31;56.31;101861.63;7361763;19;20011;-64
2022/03/28 06:29:33;;;;;;;0.00;0.00;;;;;;;7.30;56.06;101854.69;7349802;19;20097;-63
2022/03/28 06:31:58;;;;;;;0.00;0.00;;;;;;;7.33;55.98;101852.09;7359543;19;20038;-63
2022/03/28 06:34:24;;;;;;;0.00;0.00;;;;;;;7.34;56.38;101853.84;7348895;19;20018;-63
2022/03/28 06:36:49;;;;;;;0.00;0.00;;;;;;;7.35;55.94;101855.63;7352546;19;20379;-63
2022/03/28 06:39:15;;;;;;;0.00;0.00;;;;;;;7.38;56.12;101850.41;7359268;19;20655;-63
2022/03/28 06:41:40;;;;;;;0.00;0.00;;;;;;;7.39;55.59;101854.75;7360562;19;20007;-63
2022/03/28 06:44:08;;;;;;;0.08;0.08;;;;;;;7.40;55.68;101853.03;7356123;19;20041;-63
2022/03/28 06:46:34;;;;;;;0.08;0.08;;;;;;;7.39;55.68;101852.16;7354902;19;20029;-63
2022/03/28 06:48:59;;;;;;;0.00;0.00;;;;;;;7.36;55.70;101846.94;7361290;19;20156;-61
2022/03/28 06:51:25;;;;;;;0.00;0.00;;;;;;;7.30;56.14;101844.31;7346050;19;20042;-63
2022/03/28 06:53:51;;;;;;;0.00;0.00;;;;;;;7.23;55.72;101847.69;7359215;19;20593;-63
2022/03/28 06:56:17;;;;;;;0.08;0.08;;;;;;;7.21;56.29;101852.88;7356006;19;20020;-62
2022/03/28 06:58:43;;;;;;;0.00;0.00;;;;;;;7.21;56.63;101852.00;7351745;19;20014;-62
2022/03/28 07:01:10;;;;;;;0.10;0.10;;;;;;;7.23;56.51;101855.47;7355854;19;20580;-62
2022/03/28 07:03:35;;;;;;;0.00;0.00;;;;;;;7.25;57.05;101858.97;7353369;19;20030;-63
2022/03/28 07:06:01;;;;;;;0.00;0.00;;;;;;;7.27;56.89;101852.06;7354021;19;20006;-62
2022/03/28 07:08:26;;;;;;;0.00;0.00;;;;;;;7.30;57.11;101852.09;7357645;19;20053;-63
2022/03/28 07:10:52;;;;;;;0.00;0.00;;;;;;;7.30;57.14;101852.09;7360169;19;20035;-63
2022/03/28 07:13:18;;;;;;;0.00;0.00;;;;;;;7.30;57.86;101854.69;7352121;19;20751;-62
2022/03/28 07:15:43;;;;;;;0.00;0.00;;;;;;;7.32;57.43;101852.97;7353372;19;20018;-61
2022/03/28 07:18:09;;;;;;;0.00;0.00;;;;;;;7.35;57.02;101857.31;7348353;19;20688;-63
2022/03/28 07:20:35;;;;;;;0.00;0.00;;;;;;;7.37;57.63;101859.09;7353150;19;20028;-63
2022/03/28 07:23:02;;;;;;;0.00;0.00;;;;;;;7.39;57.73;101859.94;7354110;19;20042;-63
2022/03/28 07:25:28;;;;;;;0.00;0.00;;;;;;;7.41;57.71;101852.19;7347940;19;20868;-62
2022/03/28 07:27:54;;;;;;;0.05;0.05;;;;;;;7.42;57.39;101860.00;7348025;19;20017;-63
2022/03/28 07:30:20;;;;;;;0.00;0.00;;;;;;;7.44;57.52;101865.19;7352551;19;20011;-63
2022/03/28 07:32:47;;;;;;;0.10;0.10;;;;;;;7.44;57.77;101850.47;7352337;19;20026;-63
2022/03/28 07:35:14;;;;;;;0.00;0.00;;;;;;;7.46;57.89;101850.50;7354464;19;20010;-61
2022/03/28 07:37:41;;;;;;;0.10;0.10;;;;;;;7.49;57.79;101850.50;7353386;19;20114;-62
2022/03/28 07:40:08;;;;;;;0.10;0.10;;;;;;;7.50;58.35;101845.34;7356909;19;20369;-64
2022/03/28 07:42:34;;;;;;;0.00;0.00;;;;;;;7.57;58.17;101855.78;7350024;19;20010;-61
2022/03/28 07:45:01;;;;;;;0.00;0.00;;;;;;;7.62;58.85;101851.50;7357827;19;20031;-63
2022/03/28 07:47:27;;;;;;;0.00;0.00;;;;;;;7.68;58.62;101848.94;7349105;19;20015;-63
2022/03/28 07:49:53;;;;;;;0.10;0.10;;;;;;;7.73;58.70;101848.09;7352769;19;20488;-62
2022/03/28 07:52:19;;;;;;;0.00;0.00;;;;;;;7.78;59.19;101848.16;7354532;19;20022;-63
2022/03/28 07:54:46;;;;;;;0.10;0.10;;;;;;;7.86;59.64;101843.88;7356870;19;20010;-63
2022/03/28 07:57:14;;;;;;;0.00;0.00;;;;;;;7.94;59.21;101839.59;7359997;19;20022;-63
2022/03/28 07:59:40;;;;;;;0.00;0.00;;;;;;;8.02;60.08;101832.72;7345499;19;20391;-62
2022/03/28 08:02:07;;;;;;;0.00;0.00;;;;;;;8.11;59.83;101833.59;7358135;19;20023;-63
2022/03/28 08:04:32;;;;;;;0.00;0.00;;;;;;;8.23;59.58;101838.88;7346750;19;20014;-63
2022/03/28 08:06:58;;;;;;;0.00;0.00;;;;;;;8.32;60.02;101833.75;7353073;19;20097;-63
2022/03/28 08:09:24;;;;;;;0.00;0.00;;;;;;;8.42;59.89;101840.75;7353452;19;20052;-63
2022/03/28 08:11:49;;;;;;;0.00;0.00;;;;;;;8.52;61.07;101842.53;7342469;19;20018;-63
2022/03/28 08:14:15;;;;;;;0.00;0.00;;;;;;;8.63;60.53;101844.31;7346444;19;20114;-63
2022/03/28 08:16:40;;;;;;;0.00;0.00;;;;;;;8.73;60.01;101836.53;7347761;19;20833;-64
2022/03/28 08:19:05;;;;;;;0.00;0.00;;;;;;;8.83;60.70;101832.22;7352581;19;20003;-63
2022/03/28 08:21:31;;;;;;;0.00;0.00;;;;;;;8.83;60.78;101816.59;7356515;19;20034;-63
2022/03/28 08:23:57;;;;;;;0.00;0.00;;;;;;;9.05;60.60;101827.91;7351388;19;20433;-63
2022/03/28 08:26:25;;;;;;;0.00;0.00;;;;;;;9.20;60.52;101832.28;7355145;19;20914;-63
2022/03/28 08:28:51;;;;;;;0.00;0.00;;;;;;;9.38;60.21;101826.19;7360459;19;20010;-64
2022/03/28 08:31:17;;;;;;;0.00;0.00;;;;;;;9.58;59.39;101825.34;7351438;19;20432;-64
2022/03/28 08:33:42;;;;;;;0.00;0.00;;;;;;;9.82;60.53;101823.56;7354458;19;20011;-63
2022/03/28 08:36:08;;;;;;;0.00;0.00;;;;;;;9.98;59.90;101807.00;7354729;19;20049;-64
2022/03/28 08:38:35;;;;;;;0.00;0.00;;;;;;;10.34;60.30;101826.06;7359402;19;20037;-64
2022/03/28 08:41:01;;;;;;;0.00;0.00;;;;;;;10.59;60.55;101827.72;7352629;19;20375;-63
2022/03/28 08:43:27;;;;;;;0.00;0.00;;;;;;;10.86;60.26;101823.22;7343198;19;20821;-63
2022/03/28 08:45:53;;;;;;;0.00;0.00;;;;;;;11.15;59.71;101821.28;7350600;19;20034;-63
2022/03/28 08:48:18;;;;;;;0.00;0.00;;;;;;;11.39;59.48;101816.75;7347086;19;20023;-64
2022/03/28 08:50:47;;;;;;;0.00;0.00;;;;;;;11.76;59.14;101822.53;7348666;19;20014;-64
2022/03/28 08:53:13;;;;;;;0.00;0.00;;;;;;;12.03;59.26;101816.16;7347067;19;20031;-64
2022/03/28 08:55:41;;;;;;;0.00;0.00;;;;;;;12.34;59.19;101813.19;7339817;19;20805;-64
2022/03/28 08:58:06;;;;;;;0.00;0.00;;;;;;;12.61;58.61;101811.97;7345655;19;20018;-64
2022/03/28 09:00:32;;;;;;;0.00;0.00;;;;;;;12.89;58.61;101807.22;7351642;19;20003;-64
2022/03/28 09:02:58;;;;;;;0.00;0.00;;;;;;;13.16;58.64;101811.16;7351634;19;20022;-64
2022/03/28 09:05:38;;;;;;;0.00;0.00;;;;;;;13.56;57.07;101802.69;7348513;19;20701;-64
2022/03/28 09:08:05;;;;;;;0.00;0.00;;;;;;;13.80;57.73;101799.63;7342820;19;20110;-64
2022/03/28 09:10:33;;;;;;;0.00;0.00;;;;;;;14.12;57.80;101809.50;7338615;19;20009;-64
2022/03/28 09:13:06;;;;;;;0.00;0.00;;;;;;;14.40;56.53;101803.72;7350819;19;20006;-64
2022/03/28 09:15:41;;;;;;;0.00;0.00;;;;;;;14.83;55.74;101805.41;7340512;19;20016;-64
2022/03/28 09:18:07;;;;;;;0.00;0.00;;;;;;;15.08;55.91;101796.06;7355795;19;20017;-64
2022/03/28 09:20:35;;;;;;;0.00;0.00;;;;;;;15.47;56.11;101793.34;7348484;19;20023;-65
2022/03/28 09:23:29;;;;;;;0.10;0.10;;;;;;;15.93;55.04;101790.41;7354185;19;20011;-64
2022/03/28 09:25:56;;;;;;;0.00;0.00;;;;;;;16.20;54.63;101780.84;7248787;19;2004480;-65
2022/03/28 09:28:38;;;;;;;0.00;0.00;;;;;;;16.72;54.16;101784.56;7348015;19;20019;-64
2022/03/28 09:31:16;;;;;;;0.03;0.03;;;;;;;17.10;53.77;101779.88;7345645;19;20027;-64
2022/03/28 09:33:51;;;;;;;0.08;0.08;;;;;;;17.38;53.17;101754.25;7356648;19;20021;-64
2022/03/28 09:36:17;;;;;;;0.00;0.00;;;;;;;17.72;52.59;101774.22;7344365;19;20791;-65
2022/03/28 09:38:55;;;;;;;0.00;0.00;;;;;;;18.24;52.45;101777.66;7358753;19;20246;-64
2022/03/28 09:41:23;;;;;;;0.00;0.00;;;;;;;18.53;51.53;101773.91;7362753;19;20014;-64
2022/03/28 09:43:54;;;;;;;0.00;0.00;;;;;;;18.91;51.40;101775.06;7356743;19;20725;-64
2022/03/28 09:46:27;;;;;;;0.00;0.00;;;;;;;19.31;51.07;101778.72;7361162;19;20585;-64
2022/03/28 09:48:53;;;;;;;0.00;0.00;;;;;;;19.54;50.04;101774.22;7355918;19;20018;-64
2022/03/28 09:51:21;;;;;;;0.08;0.08;;;;;;;19.82;49.24;101758.91;7361636;19;20941;-64
2022/03/28 09:53:47;;;;;;;0.08;0.08;;;;;;;20.19;48.14;101759.88;7353423;19;20027;-64
2022/03/28 09:56:13;;;;;;;0.00;0.00;;;;;;;20.47;47.67;101751.50;7366522;19;20039;-64
2022/03/28 09:58:43;;;;;;;0.00;0.00;;;;;;;20.87;47.67;101760.22;7357417;19;21079;-64
2022/03/28 10:01:35;;;;;;;0.00;0.00;;;;;;;21.30;47.58;101756.31;7358627;19;20011;-64
2022/03/28 10:04:06;;;;;;;0.00;0.00;;;;;;;21.62;46.78;101767.09;7261368;19;2004498;-64
2022/03/28 10:06:33;;;;;;;0.00;0.00;;;;;;;21.82;45.98;101761.59;7358697;19;21969;-64
2022/03/28 10:08:59;;;;;;;0.00;0.00;;;;;;;22.09;45.35;101753.91;7354315;19;20034;-64
2022/03/28 10:11:26;;;;;;;0.10;0.10;;;;;;;22.37;44.73;101753.31;7365922;19;20021;-64
2022/03/28 10:13:52;;;;;;;0.00;0.00;;;;;;;22.68;44.01;101756.91;7349365;19;20038;-64
2022/03/28 10:16:18;;;;;;;0.00;0.00;;;;;;;22.91;43.18;101737.84;7360887;19;20006;-64
2022/03/28 10:18:46;;;;;;;0.10;0.10;;;;;;;23.28;42.64;101741.88;7358173;19;20018;-64
2022/03/28 10:21:22;;;;;;;0.05;0.05;;;;;;;23.67;43.27;101737.78;7357986;19;20093;-64
2022/03/28 10:24:10;;;;;;;0.10;0.10;;;;;;;23.99;42.57;101733.13;7357804;19;20037;-64
2022/03/28 10:26:43;;;;;;;0.00;0.00;;;;;;;24.22;41.13;101742.31;7363657;19;20010;-64
2022/03/28 10:29:12;;;;;;;0.10;0.10;;;;;;;24.46;40.48;101737.25;7357207;19;20010;-65
2022/03/28 10:31:56;;;;;;;0.00;0.00;;;;;;;24.83;41.28;101738.38;7357500;19;20041;-64
2022/03/28 10:34:41;;;;;;;0.03;0.03;;;;;;;25.17;41.38;101746.00;7357382;19;20048;-64
2022/03/28 10:37:25;;;;;;;0.00;0.00;;;;;;;25.48;40.71;101736.72;7364639;19;20003;-65
2022/03/28 10:39:52;;;;;;;0.10;0.10;;;;;;;25.56;38.47;101737.94;7360331;19;20011;-64
2022/03/28 10:42:22;;;;;;;;;;;;;;;26.17;40.96;101737.28;7364693;19;20010;-63
2022/03/28 10:45:05;;;;;;;0.10;0.10;;;;;;;26.39;39.16;101729.38;7358059;19;19938;-64
2022/03/28 10:47:44;;;;;;;0.10;0.10;;;;;;;26.66;38.69;101726.50;7362393;19;20101;-65
2022/03/28 10:50:12;;;;;;;0.08;0.08;;;;;;;26.77;35.62;101723.06;7357204;19;20030;-65
2022/03/28 10:52:38;;;;;;;0.00;0.00;;;;;;;26.95;36.36;101720.81;7353421;19;20078;-64
2022/03/28 10:55:08;;;;;;;0.10;0.10;;;;;;;27.34;36.01;101717.78;7363328;19;20014;-65
2022/03/28 10:57:35;;;;;;;0.10;0.10;;;;;;;27.45;34.50;101719.63;7357675;19;20021;-64
2022/03/28 11:00:08;;;;;;;0.00;0.00;;;;;;;27.74;34.87;101719.22;7358322;19;20023;-63
2022/03/28 11:02:35;;;;;;;0.10;0.10;;;;;;;27.95;34.08;101706.75;7364191;19;20038;-64
2022/03/28 11:05:07;;;;;;;0.00;0.00;;;;;;;28.36;34.18;101706.13;7355317;19;20011;-65
2022/03/28 11:07:33;;;;;;;0.00;0.00;;;;;;;28.49;33.00;101705.97;7362066;19;20086;-65
2022/03/28 11:09:58;;;;;;;0.00;0.00;;;;;;;28.76;32.60;101696.59;7362787;19;20006;-65
2022/03/28 11:12:38;;;;;;;0.00;0.00;;;;;;;29.19;34.30;101705.44;7361130;19;20106;-65
2022/03/28 11:15:23;;;;;;;0.10;0.10;;;;;;;29.50;34.22;101697.41;7354030;19;20010;-65
2022/03/28 11:17:56;;;;;;;0.00;0.00;;;;;;;29.68;32.80;101692.28;7363814;19;20010;-65
2022/03/28 11:20:23;;;;;;;0.00;0.00;;;;;;;29.83;30.32;101692.78;7353902;19;20847;-65
2022/03/28 11:22:51;;;;;;;;;;;;;;;30.42;34.32;101694.66;7360497;19;20026;-64
2022/03/28 11:25:28;;;;;;;0.00;0.00;;;;;;;30.57;32.28;101687.88;7364246;19;20276;-65
2022/03/28 11:28:13;;;;;;;0.00;0.00;;;;;;;30.81;32.04;101678.53;7361583;19;20097;-66